createdAt,value
2017-08-13T00:00:53.146Z,86.72
2017-08-13T00:02:03.676Z,87.3
2017-08-13T00:03:14.394Z,87.11
2017-08-13T00:04:24.849Z,86.92
2017-08-13T00:05:35.363Z,86.92
2017-08-13T00:06:45.839Z,87.3
2017-08-13T00:07:56.302Z,87.11
2017-08-13T00:09:07.013Z,87.3
2017-08-13T00:10:17.500Z,87.78
2017-08-13T00:11:27.986Z,87.59
2017-08-13T00:12:38.146Z,87.78
2017-08-13T00:13:48.584Z,87.4
2017-08-13T00:14:59.369Z,87.78
2017-08-13T00:16:09.875Z,88.07
2017-08-13T00:17:20.024Z,87.98
2017-08-13T00:18:30.012Z,88.07
2017-08-13T00:19:40.040Z,87.78
2017-08-13T00:20:50.743Z,87.88
2017-08-13T00:22:01.190Z,87.88
2017-08-13T00:23:11.840Z,87.98
2017-08-13T00:24:22.279Z,88.07
2017-08-13T00:25:32.723Z,88.17
2017-08-13T00:26:43.578Z,88.26
2017-08-13T00:27:54.051Z,88.45
2017-08-13T00:29:04.096Z,88.74
2017-08-13T00:30:14.617Z,89.27
2017-08-13T00:31:25.114Z,89.08
2017-08-13T00:32:35.875Z,88.89
2017-08-13T00:33:46.435Z,88.79
2017-08-13T00:34:56.892Z,89.12
2017-08-13T00:36:07.440Z,89.08
2017-08-13T00:37:17.880Z,89.65
2017-08-13T00:38:28.751Z,89.47
2017-08-13T00:39:39.227Z,89.47
2017-08-13T00:40:49.829Z,89.37
2017-08-13T00:42:00.284Z,89.47
2017-08-13T00:43:10.821Z,89.94
2017-08-13T00:44:21.273Z,89.85
2017-08-13T00:45:31.813Z,90.14
2017-08-13T00:46:42.260Z,89.75
2017-08-13T00:47:52.417Z,89.94
2017-08-13T00:49:02.921Z,89.75
2017-08-13T00:50:13.617Z,89.47
2017-08-13T00:51:24.086Z,89.37
2017-08-13T00:52:34.569Z,89.94
2017-08-13T00:53:45.038Z,90.33
2017-08-13T00:54:55.484Z,90.14
2017-08-13T00:56:06.219Z,90.14
2017-08-13T00:57:16.728Z,90.23
2017-08-13T00:58:27.202Z,90.14
2017-08-13T00:59:37.663Z,89.94
2017-08-13T01:00:48.133Z,90.33
2017-08-13T01:01:59.084Z,89.94
2017-08-13T01:03:09.296Z,90.33
2017-08-13T01:04:19.781Z,90.71
2017-08-13T01:05:29.778Z,90.71
2017-08-13T01:06:40.324Z,90.42
2017-08-13T01:07:51.099Z,90.42
2017-08-13T01:09:01.579Z,90.52
2017-08-13T01:10:11.761Z,91.28
2017-08-13T01:11:22.280Z,91
2017-08-13T01:12:32.760Z,90.9
2017-08-13T01:13:43.459Z,90.52
2017-08-13T01:14:53.638Z,90.81
2017-08-13T01:16:04.111Z,91.09
2017-08-13T01:17:14.573Z,91.38
2017-08-13T01:18:25.047Z,91.19
2017-08-13T01:19:35.940Z,90.9
2017-08-13T01:20:46.396Z,91.67
2017-08-13T01:21:56.861Z,91.34
2017-08-13T01:23:07.334Z,91.67
2017-08-13T01:24:17.875Z,91.53
2017-08-13T01:25:28.595Z,91.09
2017-08-13T01:26:39.051Z,91.77
2017-08-13T01:27:49.541Z,92.05
2017-08-13T01:28:59.683Z,91.86
2017-08-13T01:30:10.149Z,91.96
2017-08-13T01:31:20.856Z,91.96
2017-08-13T01:32:31.320Z,91.86
2017-08-13T01:33:41.805Z,91.86
2017-08-13T01:34:52.462Z,91.63
2017-08-13T01:36:02.963Z,91.72
2017-08-13T01:37:13.875Z,91.72
2017-08-13T01:38:23.978Z,91.72
2017-08-13T01:39:34.578Z,91.63
2017-08-13T01:40:45.563Z,91.34
2017-08-13T01:41:56.038Z,92.39
2017-08-13T01:43:06.733Z,92.3
2017-08-13T01:44:17.197Z,92.3
2017-08-13T01:45:27.672Z,91.91
2017-08-13T01:46:37.672Z,92.01
2017-08-13T01:47:48.142Z,92.1
2017-08-13T01:48:58.870Z,92.1
2017-08-13T01:50:09.310Z,92.39
2017-08-13T01:51:19.339Z,92.3
2017-08-13T01:52:30.787Z,92.01
2017-08-13T01:53:41.335Z,91.91
2017-08-13T01:54:52.040Z,92.77
2017-08-13T01:56:01.749Z,92.58
2017-08-13T01:57:12.287Z,92.68
2017-08-13T01:58:22.752Z,92.77
2017-08-13T01:59:32.892Z,92.77
2017-08-13T02:00:43.874Z,92.58
2017-08-13T02:01:54.347Z,93.16
2017-08-13T02:03:04.505Z,92.97
2017-08-13T02:04:14.978Z,93.06
2017-08-13T02:05:25.440Z,92.97
2017-08-13T02:06:36.142Z,92.97
2017-08-13T02:07:46.631Z,92.87
2017-08-13T02:08:57.080Z,93.16
2017-08-13T02:10:07.242Z,92.97
2017-08-13T02:11:17.776Z,93.35
2017-08-13T02:12:28.546Z,93.54
2017-08-13T02:13:39.017Z,93.26
2017-08-13T02:14:49.166Z,93.26
2017-08-13T02:16:31.738Z,93.26
2017-08-13T02:17:42.456Z,93.44
2017-08-13T02:18:52.604Z,93.16
2017-08-13T02:20:03.302Z,93.06
2017-08-13T02:21:13.657Z,93.16
2017-08-13T02:22:24.114Z,93.35
2017-08-13T02:23:34.823Z,92.87
2017-08-13T02:24:45.494Z,92.68
2017-08-13T02:25:55.337Z,92.97
2017-08-13T02:27:05.817Z,92.97
2017-08-13T02:28:16.249Z,93.06
2017-08-13T02:29:27.074Z,92.97
2017-08-13T02:30:37.568Z,93.06
2017-08-13T02:31:48.025Z,92.87
2017-08-13T02:32:58.509Z,93.11
2017-08-13T02:34:10.002Z,92.77
2017-08-13T02:35:20.406Z,93.35
2017-08-13T02:36:30.859Z,92.68
2017-08-13T02:37:41.310Z,92.97
2017-08-13T02:38:51.596Z,92.91
2017-08-13T02:40:01.802Z,93.01
2017-08-13T02:41:12.498Z,93.16
2017-08-13T02:42:22.968Z,93.49
2017-08-13T02:43:33.457Z,93.21
2017-08-13T02:44:43.973Z,92.82
2017-08-13T02:45:54.433Z,92.63
2017-08-13T02:47:05.146Z,92.54
2017-08-13T02:48:15.157Z,92.82
2017-08-13T02:49:25.609Z,92.91
2017-08-13T02:50:35.762Z,92.82
2017-08-13T02:51:46.218Z,92.82
2017-08-13T02:52:56.638Z,92.63
2017-08-13T02:54:07.106Z,92.34
2017-08-13T02:55:17.576Z,92.72
2017-08-13T02:56:28.066Z,92.82
2017-08-13T02:57:38.507Z,92.72
2017-08-13T02:58:48.906Z,92.91
2017-08-13T02:59:59.445Z,92.82
2017-08-13T03:01:09.958Z,92.82
2017-08-13T03:02:20.405Z,92.72
2017-08-13T03:03:30.876Z,92.72
2017-08-13T03:04:41.280Z,92.54
2017-08-13T03:05:51.437Z,92.72
2017-08-13T03:07:01.582Z,92.72
2017-08-13T03:08:12.085Z,92.63
2017-08-13T03:09:22.545Z,92.72
2017-08-13T03:10:33.248Z,92.91
2017-08-13T03:11:43.726Z,92.63
2017-08-13T03:12:54.306Z,92.72
2017-08-13T03:14:04.763Z,92.72
2017-08-13T03:15:15.252Z,92.54
2017-08-13T03:16:25.831Z,92.63
2017-08-13T03:17:36.313Z,92.63
2017-08-13T03:18:46.880Z,92.63
2017-08-13T03:19:57.339Z,92.82
2017-08-13T03:21:07.789Z,92.91
2017-08-13T03:22:18.509Z,92.72
2017-08-13T03:23:28.989Z,92.63
2017-08-13T03:24:39.476Z,92.63
2017-08-13T03:25:48.997Z,92.54
2017-08-13T03:26:59.458Z,91.86
2017-08-13T03:28:09.724Z,91.86
2017-08-13T03:29:20.229Z,92.05
2017-08-13T03:30:30.687Z,92.05
2017-08-13T03:31:40.856Z,92.15
2017-08-13T03:32:51.313Z,92.44
2017-08-13T03:34:02.244Z,91.96
2017-08-13T03:35:12.686Z,92.44
2017-08-13T03:36:23.142Z,92.05
2017-08-13T03:37:33.695Z,92.34
2017-08-13T03:38:44.164Z,91.86
2017-08-13T03:39:54.889Z,92.15
2017-08-13T03:41:05.375Z,92.05
2017-08-13T03:42:15.839Z,92.34
2017-08-13T03:43:26.313Z,92.39
2017-08-13T03:44:36.766Z,92.15
2017-08-13T03:45:47.496Z,91.96
2017-08-13T03:46:58.029Z,92.24
2017-08-13T03:48:08.474Z,92.34
2017-08-13T03:49:18.952Z,92.15
2017-08-13T03:50:28.650Z,92.15
2017-08-13T03:51:39.359Z,91.96
2017-08-13T03:52:49.500Z,92.15
2017-08-13T03:54:00.140Z,92.24
2017-08-13T03:55:10.298Z,92.19
2017-08-13T03:56:20.773Z,92.39
2017-08-13T03:57:31.482Z,92.19
2017-08-13T03:58:41.942Z,92.29
2017-08-13T03:59:52.445Z,92.34
2017-08-13T04:01:02.895Z,92.05
2017-08-13T04:02:13.449Z,91.91
2017-08-13T04:03:23.881Z,92.15
2017-08-13T04:04:34.533Z,92.29
2017-08-13T04:05:45.029Z,92.24
2017-08-13T04:06:55.492Z,92.05
2017-08-13T04:08:05.997Z,92.68
2017-08-13T04:09:16.706Z,92.77
2017-08-13T04:10:26.984Z,92.86
2017-08-13T04:11:37.464Z,92.77
2017-08-13T04:12:47.948Z,92.77
2017-08-13T04:13:58.429Z,92.68
2017-08-13T04:15:09.158Z,92.68
2017-08-13T04:16:19.618Z,92.68
2017-08-13T04:17:30.076Z,92.86
2017-08-13T04:18:40.573Z,92.58
2017-08-13T04:19:51.137Z,92.48
2017-08-13T04:21:01.849Z,92.77
2017-08-13T04:22:12.304Z,92.68
2017-08-13T04:23:22.805Z,92.77
2017-08-13T04:24:33.317Z,92.86
2017-08-13T04:25:43.776Z,92.77
2017-08-13T04:26:54.057Z,92.86
2017-08-13T04:28:04.223Z,92.77
2017-08-13T04:29:14.849Z,92.77
2017-08-13T04:30:25.300Z,93.25
2017-08-13T04:31:35.804Z,93.06
2017-08-13T04:32:46.516Z,93.15
2017-08-13T04:33:57.245Z,93.06
2017-08-13T04:35:07.721Z,93.25
2017-08-13T04:36:17.922Z,93.15
2017-08-13T04:37:28.605Z,93.54
2017-08-13T04:38:39.351Z,93.25
2017-08-13T04:39:49.495Z,93.54
2017-08-13T04:41:00.062Z,93.25
2017-08-13T04:42:10.223Z,92.68
2017-08-13T04:43:20.678Z,92.77
2017-08-13T04:44:31.399Z,92.68
2017-08-13T04:45:41.531Z,92.86
2017-08-13T04:46:52.034Z,92.68
2017-08-13T04:48:02.523Z,92.72
2017-08-13T04:49:12.668Z,92.72
2017-08-13T04:50:23.377Z,92.44
2017-08-13T04:51:33.908Z,92.86
2017-08-13T04:52:44.404Z,92.68
2017-08-13T04:53:54.847Z,92.82
2017-08-13T04:55:05.276Z,92.82
2017-08-13T04:56:16.077Z,92.63
2017-08-13T04:57:26.310Z,93.25
2017-08-13T04:58:36.866Z,93.21
2017-08-13T04:59:47.330Z,93.21
2017-08-13T05:00:57.813Z,93.35
2017-08-13T05:02:08.529Z,92.77
2017-08-13T05:03:18.685Z,92.68
2017-08-13T05:04:29.149Z,92.48
2017-08-13T05:05:39.614Z,92.48
2017-08-13T05:06:49.762Z,92.77
2017-08-13T05:08:00.444Z,92.86
2017-08-13T05:09:10.870Z,92.39
2017-08-13T05:10:21.337Z,92.77
2017-08-13T05:11:31.887Z,92.77
2017-08-13T05:12:42.485Z,92
2017-08-13T05:13:52.435Z,92.29
2017-08-13T05:15:02.881Z,92.24
2017-08-13T05:16:13.468Z,91.76
2017-08-13T05:17:23.942Z,91.96
2017-08-13T05:18:34.383Z,91.86
2017-08-13T05:19:44.474Z,91.57
2017-08-13T05:20:54.946Z,91.47
2017-08-13T05:22:05.313Z,91.28
2017-08-13T05:23:15.811Z,91.38
2017-08-13T05:24:26.359Z,90.9
2017-08-13T05:25:37.103Z,90.99
2017-08-13T05:26:47.578Z,91.09
2017-08-13T05:27:57.727Z,90.61
2017-08-13T05:29:07.863Z,90.42
2017-08-13T05:30:18.481Z,90.61
2017-08-13T05:31:29.182Z,90.52
2017-08-13T05:32:39.687Z,90.22
2017-08-13T05:33:49.918Z,90.42
2017-08-13T05:35:00.364Z,90.22
2017-08-13T05:36:10.823Z,90.03
2017-08-13T05:37:21.629Z,90.13
2017-08-13T05:38:31.869Z,89.17
2017-08-13T05:39:43.349Z,89.75
2017-08-13T05:40:53.387Z,89.17
2017-08-13T05:42:03.718Z,89.17
2017-08-13T05:43:14.430Z,89.84
2017-08-13T05:44:24.917Z,89.5
2017-08-13T05:45:35.144Z,89.12
2017-08-13T05:46:45.719Z,89.65
2017-08-13T05:47:56.199Z,89.07
2017-08-13T05:49:06.619Z,89.07
2017-08-13T05:50:17.087Z,88.98
2017-08-13T05:51:27.238Z,88.49
2017-08-13T05:52:37.788Z,87.96
2017-08-13T05:53:47.950Z,87.19
2017-08-13T05:54:58.638Z,86.52
2017-08-13T05:56:09.138Z,86.43
2017-08-13T05:57:19.585Z,86.19
2017-08-13T05:58:30.073Z,86.14
2017-08-13T05:59:40.535Z,85.28
2017-08-13T06:00:51.234Z,85.37
2017-08-13T06:02:01.681Z,85.47
2017-08-13T06:03:11.833Z,85.37
2017-08-13T06:04:22.300Z,85.47
2017-08-13T06:05:32.571Z,84.12
2017-08-13T06:06:43.255Z,84.22
2017-08-13T06:07:53.724Z,84.51
2017-08-13T06:09:04.228Z,84.89
2017-08-13T06:10:14.680Z,84.41
2017-08-13T06:11:25.362Z,84.51
2017-08-13T06:12:36.301Z,84.51
2017-08-13T06:13:46.750Z,84.6
2017-08-13T06:14:57.260Z,84.6
2017-08-13T06:16:07.744Z,84.8
2017-08-13T06:17:18.200Z,84.12
2017-08-13T06:18:28.938Z,84.12
2017-08-13T06:19:39.399Z,84.12
2017-08-13T06:20:49.900Z,83.93
2017-08-13T06:22:00.370Z,83.74
2017-08-13T06:23:10.823Z,83.84
2017-08-13T06:24:21.237Z,83.93
2017-08-13T06:25:31.078Z,83.16
2017-08-13T06:26:41.090Z,83.3
2017-08-13T06:27:51.650Z,83.26
2017-08-13T06:29:02.118Z,82.2
2017-08-13T06:30:12.566Z,81.63
2017-08-13T06:31:23.010Z,81.43
2017-08-13T06:32:33.541Z,81.48
2017-08-13T06:33:43.763Z,80.96
2017-08-13T06:34:54.154Z,80.86
2017-08-13T06:36:04.488Z,79.27
2017-08-13T06:37:14.958Z,79.22
2017-08-13T06:38:25.403Z,79.42
2017-08-13T06:39:35.873Z,77.92
2017-08-13T06:40:45.889Z,77.31
2017-08-13T06:41:56.709Z,76.54
2017-08-13T06:43:06.835Z,76.34
2017-08-13T06:44:17.286Z,76.44
2017-08-13T06:45:27.763Z,76.92
2017-08-13T06:46:38.232Z,75.87
2017-08-13T06:47:48.977Z,76.34
2017-08-13T06:48:59.430Z,76.54
2017-08-13T06:50:09.596Z,75.1
2017-08-13T06:51:19.727Z,74.81
2017-08-13T06:52:30.461Z,74.85
2017-08-13T06:53:41.193Z,74.9
2017-08-13T06:54:51.869Z,74.65
2017-08-13T06:56:02.824Z,74.75
2017-08-13T06:57:13.299Z,75.04
2017-08-13T06:58:23.434Z,75.42
2017-08-13T06:59:33.998Z,74.75
2017-08-13T07:00:44.450Z,74.75
2017-08-13T07:01:54.947Z,74.27
2017-08-13T07:03:05.420Z,73.88
2017-08-13T07:04:15.923Z,73.69
2017-08-13T07:05:26.642Z,73.73
2017-08-13T07:06:37.100Z,73.63
2017-08-13T07:07:47.583Z,73.54
2017-08-13T07:08:58.091Z,73.25
2017-08-13T07:10:08.560Z,72.96
2017-08-13T07:11:18.957Z,72.19
2017-08-13T07:12:29.116Z,71.52
2017-08-13T07:13:39.652Z,68.83
2017-08-13T07:14:50.325Z,69.79
2017-08-13T07:16:00.790Z,70.37
2017-08-13T07:17:11.490Z,71.14
2017-08-13T07:18:22.019Z,71.33
2017-08-13T07:19:32.530Z,71.61
2017-08-13T07:20:42.988Z,71.61
2017-08-13T07:21:53.493Z,72.09
2017-08-13T07:23:04.219Z,72
2017-08-13T07:24:14.670Z,70.65
2017-08-13T07:25:25.183Z,70.21
2017-08-13T07:26:35.651Z,70.01
2017-08-13T07:27:46.119Z,70.27
2017-08-13T07:28:56.070Z,71.14
2017-08-13T07:30:06.218Z,70.98
2017-08-13T07:31:16.765Z,70.21
2017-08-13T07:32:27.225Z,69.53
2017-08-13T07:33:37.719Z,70.4
2017-08-13T07:34:48.253Z,68.29
2017-08-13T07:35:58.506Z,68.29
2017-08-13T07:37:09.001Z,69.44
2017-08-13T07:38:19.481Z,69.82
2017-08-13T07:39:29.638Z,68.96
2017-08-13T07:40:40.048Z,69.44
2017-08-13T07:41:50.629Z,68.96
2017-08-13T07:43:00.630Z,68.48
2017-08-13T07:44:11.135Z,69.06
2017-08-13T07:45:21.650Z,69.15
2017-08-13T07:46:32.524Z,68.96
2017-08-13T07:47:43.251Z,69.63
2017-08-13T07:48:53.738Z,69.24
2017-08-13T07:50:05.199Z,69.28
2017-08-13T07:51:15.693Z,68.8
2017-08-13T07:52:26.530Z,67.93
2017-08-13T07:53:37.053Z,67.16
2017-08-13T07:54:47.657Z,67.26
2017-08-13T07:55:58.186Z,67.45
2017-08-13T07:57:08.538Z,66.2
2017-08-13T07:58:19.294Z,65.85
2017-08-13T07:59:29.782Z,65.66
2017-08-13T08:00:40.308Z,66.52
2017-08-13T08:01:50.520Z,66.14
2017-08-13T08:03:00.713Z,65.94
2017-08-13T08:04:11.436Z,65.46
2017-08-13T08:05:21.763Z,64.79
2017-08-13T08:06:31.856Z,65.27
2017-08-13T08:07:42.346Z,64.34
2017-08-13T08:08:53.064Z,64.15
2017-08-13T08:10:03.765Z,63.57
2017-08-13T08:11:14.229Z,62.41
2017-08-13T08:12:24.953Z,62.7
2017-08-13T08:13:35.102Z,61.96
2017-08-13T08:14:45.565Z,61.29
2017-08-13T08:15:56.525Z,61.96
2017-08-13T08:17:07.007Z,61.99
2017-08-13T08:18:16.700Z,60.74
2017-08-13T08:19:27.162Z,60.58
2017-08-13T08:20:37.889Z,58.94
2017-08-13T08:21:48.144Z,58.75
2017-08-13T08:22:58.232Z,58.58
2017-08-13T08:24:08.706Z,57.52
2017-08-13T08:25:19.256Z,58.42
2017-08-13T08:26:29.699Z,56.87
2017-08-13T08:27:40.112Z,57.29
2017-08-13T08:28:50.594Z,56.51
2017-08-13T08:30:01.134Z,53.67
2017-08-13T08:31:10.991Z,54.17
2017-08-13T08:32:21.131Z,49.61
2017-08-13T08:33:31.560Z,49.95
2017-08-13T08:34:42.075Z,48.35
2017-08-13T08:35:52.595Z,47.03
2017-08-13T08:37:03.056Z,46.01
2017-08-13T08:38:13.617Z,44.26
2017-08-13T08:39:24.364Z,44.72
2017-08-13T08:40:34.546Z,43.55
2017-08-13T08:41:44.264Z,45.67
2017-08-13T08:42:54.722Z,46.72
2017-08-13T08:44:04.867Z,46.89
2017-08-13T08:45:15.505Z,46.48
2017-08-13T08:46:26.032Z,46.75
2017-08-13T08:47:36.527Z,48.18
2017-08-13T08:48:47.076Z,48.25
2017-08-13T08:49:57.554Z,49.49
2017-08-13T08:51:08.354Z,50.07
2017-08-13T08:52:18.831Z,50.45
2017-08-13T08:53:29.380Z,50.33
2017-08-13T08:54:39.536Z,50.72
2017-08-13T08:55:50.075Z,51.08
2017-08-13T08:57:00.818Z,51.37
2017-08-13T08:58:11.066Z,50.5
2017-08-13T08:59:21.566Z,50.28
2017-08-13T09:00:32.043Z,51.73
2017-08-13T09:01:42.545Z,51.32
2017-08-13T09:02:53.257Z,52.48
2017-08-13T09:04:03.745Z,53.13
2017-08-13T09:05:13.890Z,53.52
2017-08-13T09:06:24.618Z,54.55
2017-08-13T09:07:35.176Z,54.77
2017-08-13T09:08:45.974Z,54.94
2017-08-13T09:09:56.440Z,55.04
2017-08-13T09:11:06.997Z,55.04
2017-08-13T09:12:17.468Z,55.13
2017-08-13T09:13:27.788Z,55.04
2017-08-13T09:14:38.614Z,54.55
2017-08-13T09:15:49.143Z,54.75
2017-08-13T09:16:59.731Z,54.1
2017-08-13T09:18:10.215Z,54.49
2017-08-13T09:19:20.746Z,53.81
2017-08-13T09:20:31.493Z,53.52
2017-08-13T09:21:42.061Z,54
2017-08-13T09:22:52.526Z,53.45
2017-08-13T09:24:03.057Z,53.67
2017-08-13T09:25:13.261Z,53.21
2017-08-13T09:26:23.994Z,52.24
2017-08-13T09:27:34.181Z,51.88
2017-08-13T09:28:44.390Z,50.92
2017-08-13T09:29:54.872Z,50.55
2017-08-13T09:31:05.355Z,50.35
2017-08-13T09:32:15.663Z,49.7
2017-08-13T09:33:26.168Z,50.12
2017-08-13T09:34:36.650Z,49.34
2017-08-13T09:35:47.149Z,49.27
2017-08-13T09:36:57.637Z,48
2017-08-13T09:38:08.443Z,44.64
2017-08-13T09:39:18.505Z,44.64
2017-08-13T09:40:29.151Z,45.58
2017-08-13T09:41:39.616Z,46.62
2017-08-13T09:42:50.188Z,47.5
2017-08-13T09:44:00.985Z,48.18
2017-08-13T09:45:11.449Z,48.06
2017-08-13T09:46:21.950Z,48.9
2017-08-13T09:47:32.463Z,48.71
2017-08-13T09:48:42.363Z,48.49
2017-08-13T09:49:52.907Z,48.57
2017-08-13T09:51:03.601Z,49.24
2017-08-13T09:52:13.621Z,48.49
2017-08-13T09:53:24.349Z,48.25
2017-08-13T09:54:34.852Z,47.69
2017-08-13T09:55:45.482Z,47.11
2017-08-13T09:56:55.691Z,47.52
2017-08-13T09:58:06.280Z,47.33
2017-08-13T09:59:16.435Z,47.5
2017-08-13T10:00:26.943Z,47.3
2017-08-13T10:01:38.656Z,47.6
2017-08-13T10:02:49.819Z,47.6
2017-08-13T10:04:00.339Z,48.18
2017-08-13T10:05:10.842Z,47.47
2017-08-13T10:06:21.306Z,48.06
2017-08-13T10:07:32.274Z,48.06
2017-08-13T10:08:42.793Z,47.84
2017-08-13T10:09:54.278Z,48.32
2017-08-13T10:11:04.931Z,48.03
2017-08-13T10:12:15.428Z,48.03
2017-08-13T10:13:26.270Z,48.03
2017-08-13T10:14:36.316Z,47.38
2017-08-13T10:15:46.785Z,46.99
2017-08-13T10:16:57.280Z,46.7
2017-08-13T10:18:07.891Z,46.02
2017-08-13T10:19:18.764Z,46.24
2017-08-13T10:20:29.748Z,45.92
2017-08-13T10:21:40.426Z,45.37
2017-08-13T10:22:51.042Z,45.92
2017-08-13T10:24:01.244Z,45.64
2017-08-13T10:25:12.056Z,46.09
2017-08-13T10:26:22.568Z,46.39
2017-08-13T10:27:33.570Z,47.26
2017-08-13T10:28:44.066Z,47.45
2017-08-13T10:29:54.571Z,47.84
2017-08-13T10:31:05.090Z,48.01
2017-08-13T10:32:15.611Z,47.43
2017-08-13T10:33:26.089Z,47.52
2017-08-13T10:34:36.623Z,47.79
2017-08-13T10:35:47.183Z,47.99
2017-08-13T10:36:58.206Z,48.86
2017-08-13T10:38:08.858Z,48.66
2017-08-13T10:39:19.379Z,49.05
2017-08-13T10:40:29.579Z,49.24
2017-08-13T10:41:40.203Z,48.95
2017-08-13T10:42:50.937Z,47.99
2017-08-13T10:44:01.545Z,48.08
2017-08-13T10:45:12.058Z,48.08
2017-08-13T10:46:22.329Z,48.18
2017-08-13T10:47:32.877Z,48.06
2017-08-13T10:48:42.972Z,48.08
2017-08-13T10:49:53.630Z,49.12
2017-08-13T10:51:04.195Z,49.51
2017-08-13T10:52:14.758Z,49.77
2017-08-13T10:53:25.020Z,49.87
2017-08-13T10:54:35.811Z,49.68
2017-08-13T10:55:46.405Z,49.39
2017-08-13T10:56:56.984Z,49.39
2017-08-13T10:58:07.507Z,49.32
2017-08-13T10:59:18.069Z,48.08
2017-08-13T11:00:28.961Z,45.61
2017-08-13T11:01:39.536Z,44.57
2017-08-13T11:02:50.154Z,43.54
2017-08-13T11:04:00.764Z,44.15
2017-08-13T11:05:11.415Z,44.34
2017-08-13T11:06:22.235Z,44.17
2017-08-13T11:07:32.721Z,43.2
2017-08-13T11:08:43.360Z,42.56
2017-08-13T11:09:53.957Z,43.05
2017-08-13T11:11:04.532Z,43.54
2017-08-13T11:12:15.332Z,42.36
2017-08-13T11:13:26.015Z,42.76
2017-08-13T11:14:36.700Z,42.56
2017-08-13T11:15:47.511Z,41.67
2017-08-13T11:16:58.074Z,42.52
2017-08-13T11:18:09.053Z,42.61
2017-08-13T11:19:19.590Z,43.18
2017-08-13T11:20:30.138Z,43.74
2017-08-13T11:21:41.626Z,44.03
2017-08-13T11:22:52.182Z,44.68
2017-08-13T11:24:03.171Z,44.88
2017-08-13T11:25:13.772Z,45.73
2017-08-13T11:26:25.316Z,45.54
2017-08-13T11:27:35.964Z,46.29
2017-08-13T11:28:46.623Z,46.09
2017-08-13T11:29:57.409Z,46.66
2017-08-13T11:31:08.110Z,47.11
2017-08-13T11:32:18.800Z,47.77
2017-08-13T11:33:29.503Z,48.44
2017-08-13T11:34:40.189Z,48.9
2017-08-13T11:35:51.092Z,49.29
2017-08-13T11:37:01.754Z,49.75
2017-08-13T11:38:12.387Z,50.23
2017-08-13T11:39:22.779Z,50.62
2017-08-13T11:40:33.277Z,51.29
2017-08-13T11:41:44.174Z,51.37
2017-08-13T11:42:54.760Z,51.65
2017-08-13T11:44:04.983Z,52.23
2017-08-13T11:45:15.476Z,52.62
2017-08-13T11:46:25.971Z,52.91
2017-08-13T11:47:37.894Z,53.01
2017-08-13T11:48:48.416Z,53.49
2017-08-13T11:49:59.027Z,53.2
2017-08-13T11:51:09.540Z,53.69
2017-08-13T11:52:19.825Z,53.59
2017-08-13T11:53:30.535Z,53.11
2017-08-13T11:54:41.038Z,52.45
2017-08-13T11:55:51.475Z,52.09
2017-08-13T11:57:01.962Z,50.48
2017-08-13T11:58:12.472Z,49.63
2017-08-13T11:59:22.791Z,47.64
2017-08-13T12:00:33.845Z,46.51
2017-08-13T12:01:44.429Z,46.72
2017-08-13T12:02:55.013Z,45
2017-08-13T12:04:05.496Z,44.64
2017-08-13T12:05:16.004Z,43.88
2017-08-13T12:06:26.546Z,43.49
2017-08-13T12:07:37.039Z,43.2
2017-08-13T12:08:47.523Z,41.88
2017-08-13T12:09:58.013Z,40.64
2017-08-13T12:11:08.802Z,39.57
2017-08-13T12:12:19.397Z,38.4
2017-08-13T12:13:29.711Z,38.91
2017-08-13T12:14:39.548Z,38.44
2017-08-13T12:15:50.153Z,37
2017-08-13T12:17:00.908Z,35.16
2017-08-13T12:18:11.721Z,35.85
2017-08-13T12:19:22.281Z,33.82
2017-08-13T12:20:32.776Z,35.18
2017-08-13T12:21:43.398Z,35.96
2017-08-13T12:22:54.164Z,34.59
2017-08-13T12:24:04.854Z,35.18
2017-08-13T12:25:15.344Z,35.3
2017-08-13T12:26:25.952Z,34.42
2017-08-13T12:27:36.462Z,34.91
2017-08-13T12:28:47.399Z,34.52
2017-08-13T12:29:57.919Z,35.2
2017-08-13T12:31:08.477Z,34.73
2017-08-13T12:32:19.275Z,34.63
2017-08-13T12:33:29.960Z,34.73
2017-08-13T12:34:40.861Z,33.85
2017-08-13T12:35:51.387Z,33.17
2017-08-13T12:37:01.954Z,33.75
2017-08-13T12:38:12.476Z,34.61
2017-08-13T12:39:22.990Z,33.54
2017-08-13T12:40:34.079Z,34.59
2017-08-13T12:41:44.656Z,34.48
2017-08-13T12:42:55.256Z,34.95
2017-08-13T12:44:05.748Z,35.81
2017-08-13T12:45:16.412Z,36.67
2017-08-13T12:46:27.253Z,37.04
2017-08-13T12:47:37.820Z,38.39
2017-08-13T12:48:48.323Z,39.34
2017-08-13T12:49:59.016Z,39.7
2017-08-13T12:51:09.523Z,40.08
2017-08-13T12:52:20.330Z,40.83
2017-08-13T12:53:32.018Z,41.58
2017-08-13T12:54:42.602Z,42.14
2017-08-13T12:55:53.137Z,42.41
2017-08-13T12:57:03.630Z,43.29
2017-08-13T12:58:14.362Z,43.58
2017-08-13T12:59:25.010Z,43.87
2017-08-13T13:00:35.540Z,44.13
2017-08-13T13:01:46.061Z,44.53
2017-08-13T13:02:56.285Z,44.81
2017-08-13T13:04:07.153Z,45.2
2017-08-13T13:05:17.639Z,45.37
2017-08-13T13:06:27.803Z,45.95
2017-08-13T13:07:38.358Z,46.05
2017-08-13T13:08:48.878Z,46.15
2017-08-13T13:09:59.757Z,46.53
2017-08-13T13:11:10.238Z,46.63
2017-08-13T13:12:20.310Z,46.8
2017-08-13T13:13:30.788Z,47.19
2017-08-13T13:14:41.266Z,47.09
2017-08-13T13:15:53.126Z,47.19
2017-08-13T13:17:03.615Z,47.58
2017-08-13T13:18:14.299Z,48.06
2017-08-13T13:19:24.431Z,48.16
2017-08-13T13:20:34.992Z,48.25
2017-08-13T13:21:45.767Z,48.16
2017-08-13T13:22:56.247Z,48.06
2017-08-13T13:24:06.499Z,48.06
2017-08-13T13:25:16.999Z,48.16
2017-08-13T13:26:27.476Z,48.06
2017-08-13T13:27:38.004Z,47.41
2017-08-13T13:28:48.541Z,47.31
2017-08-13T13:29:58.712Z,48.08
2017-08-13T13:31:09.307Z,47.99
2017-08-13T13:32:19.915Z,47.5
2017-08-13T13:33:30.679Z,48.08
2017-08-13T13:34:41.187Z,48.08
2017-08-13T13:35:51.869Z,48.25
2017-08-13T13:37:02.386Z,47.99
2017-08-13T13:38:12.902Z,48.18
2017-08-13T13:39:23.664Z,48.54
2017-08-13T13:40:34.189Z,48.54
2017-08-13T13:41:45.656Z,48.54
2017-08-13T13:42:56.189Z,48.74
2017-08-13T13:44:06.673Z,48.93
2017-08-13T13:45:17.480Z,48.83
2017-08-13T13:46:27.999Z,48.64
2017-08-13T13:47:38.571Z,49.1
2017-08-13T13:48:49.086Z,48.93
2017-08-13T13:49:59.616Z,49.19
2017-08-13T13:51:10.448Z,49.29
2017-08-13T13:52:21.042Z,49.29
2017-08-13T13:53:31.560Z,49.49
2017-08-13T13:54:42.057Z,49.58
2017-08-13T13:55:52.601Z,49.58
2017-08-13T13:57:02.880Z,49.29
2017-08-13T13:58:13.376Z,49.58
2017-08-13T13:59:23.789Z,49.58
2017-08-13T14:00:34.585Z,50.26
2017-08-13T14:01:45.255Z,49.49
2017-08-13T14:02:55.996Z,49.55
2017-08-13T14:04:06.478Z,49.49
2017-08-13T14:05:17.062Z,49.77
2017-08-13T14:06:27.532Z,49.68
2017-08-13T14:07:37.995Z,49
2017-08-13T14:08:48.787Z,49.29
2017-08-13T14:09:59.282Z,48.64
2017-08-13T14:11:09.798Z,48.35
2017-08-13T14:12:20.322Z,48.25
2017-08-13T14:13:30.921Z,47.48
2017-08-13T14:14:41.769Z,47.69
2017-08-13T14:15:51.922Z,47.5
2017-08-13T14:17:02.570Z,47.41
2017-08-13T14:18:13.222Z,47.21
2017-08-13T14:19:23.773Z,46.44
2017-08-13T14:20:34.561Z,46.75
2017-08-13T14:21:46.208Z,45.78
2017-08-13T14:22:56.722Z,45.49
2017-08-13T14:24:07.365Z,45.59
2017-08-13T14:25:17.919Z,45.3
2017-08-13T14:26:28.343Z,45.4
2017-08-13T14:27:38.440Z,45.49
2017-08-13T14:28:49.408Z,45.4
2017-08-13T14:30:00.051Z,45.49
2017-08-13T14:31:10.868Z,45.59
2017-08-13T14:32:21.193Z,45.98
2017-08-13T14:33:31.272Z,46.17
2017-08-13T14:34:41.836Z,46.34
2017-08-13T14:35:51.947Z,46.44
2017-08-13T14:37:04.031Z,45.95
2017-08-13T14:38:14.820Z,46.34
2017-08-13T14:39:25.053Z,46.63
2017-08-13T14:40:35.615Z,47.02
2017-08-13T14:41:46.176Z,47.38
2017-08-13T14:42:56.660Z,47.48
2017-08-13T14:44:07.451Z,47.28
2017-08-13T14:45:18.027Z,47.58
2017-08-13T14:46:28.529Z,47.58
2017-08-13T14:47:39.051Z,47.38
2017-08-13T14:48:49.560Z,48.03
2017-08-13T14:50:00.302Z,47.94
2017-08-13T14:51:10.783Z,48.13
2017-08-13T14:52:20.984Z,48.23
2017-08-13T14:53:31.505Z,48.9
2017-08-13T14:54:42.085Z,48.71
2017-08-13T14:55:52.493Z,49.07
2017-08-13T14:57:02.984Z,49.29
2017-08-13T14:58:13.252Z,49.17
2017-08-13T14:59:24.769Z,49.55
2017-08-13T15:00:34.633Z,49.85
2017-08-13T15:01:45.420Z,49.95
2017-08-13T15:02:55.962Z,49.95
2017-08-13T15:04:06.630Z,50.43
2017-08-13T15:05:16.818Z,50.23
2017-08-13T15:06:27.421Z,50.43
2017-08-13T15:07:37.887Z,50.43
2017-08-13T15:08:48.446Z,50.81
2017-08-13T15:09:58.321Z,51.39
2017-08-13T15:11:08.829Z,50.71
2017-08-13T15:12:19.047Z,50.4